sensor_id;sensor_type;location;lat;lon;timestamp;pressure;altitude;pressure_sealevel;temperature;humidity
52319;BME280;38258;51.148;14.068;2023-12-04T00:00:48;98774.94;;;-7.21;100.00
52319;BME280;38258;51.148;14.068;2023-12-04T00:03:15;98783.50;;;-7.19;100.00
52319;BME280;38258;51.148;14.068;2023-12-04T00:05:42;98786.03;;;-7.19;100.00
52319;BME280;38258;51.148;14.068;2023-12-04T00:08:10;98759.03;;;-7.52;100.00
52319;BME280;38258;51.148;14.068;2023-12-04T00:10:37;98796.53;;;-7.29;100.00
52319;BME280;38258;51.148;14.068;2023-12-04T00:13:03;98770.44;;;-7.78;100.00
52319;BME280;38258;51.148;14.068;2023-12-04T00:15:30;98781.22;;;-7.82;100.00
52319;BME280;38258;51.148;14.068;2023-12-04T00:17:57;98757.28;;;-7.87;100.00
52319;BME280;38258;51.148;14.068;2023-12-04T00:20:23;98797.25;;;-7.50;100.00
52319;BME280;38258;51.148;14.068;2023-12-04T00:22:50;98773.19;;;-7.57;100.00
52319;BME280;38258;51.148;14.068;2023-12-04T00:25:18;98780.25;;;-7.51;100.00
52319;BME280;38258;51.148;14.068;2023-12-04T00:27:44;98772.50;;;-7.71;100.00
52319;BME280;38258;51.148;14.068;2023-12-04T00:30:11;98767.19;;;-7.92;100.00
52319;BME280;38258;51.148;14.068;2023-12-04T00:32:38;98769.56;;;-7.95;100.00
52319;BME280;38258;51.148;14.068;2023-12-04T00:35:05;98776.81;;;-8.03;100.00
52319;BME280;38258;51.148;14.068;2023-12-04T00:37:32;98779.88;;;-7.92;100.00
52319;BME280;38258;51.148;14.068;2023-12-04T00:40:03;98783.16;;;-7.95;100.00
52319;BME280;38258;51.148;14.068;2023-12-04T00:42:32;98766.78;;;-8.00;100.00
52319;BME280;38258;51.148;14.068;2023-12-04T00:44:58;98778.00;;;-7.96;100.00
52319;BME280;38258;51.148;14.068;2023-12-04T00:47:25;98785.91;;;-8.06;100.00
52319;BME280;38258;51.148;14.068;2023-12-04T00:49:51;98767.84;;;-7.96;100.00
52319;BME280;38258;51.148;14.068;2023-12-04T00:52:18;98755.69;;;-8.18;100.00
52319;BME280;38258;51.148;14.068;2023-12-04T00:54:45;98762.63;;;-8.16;100.00
52319;BME280;38258;51.148;14.068;2023-12-04T00:57:11;98780.53;;;-7.96;100.00
52319;BME280;38258;51.148;14.068;2023-12-04T00:59:39;98766.97;;;-7.80;100.00
52319;BME280;38258;51.148;14.068;2023-12-04T01:02:06;98771.47;;;-7.74;100.00
52319;BME280;38258;51.148;14.068;2023-12-04T01:04:35;98778.69;;;-7.82;100.00
52319;BME280;38258;51.148;14.068;2023-12-04T01:07:02;98787.19;;;-7.98;100.00
52319;BME280;38258;51.148;14.068;2023-12-04T01:09:31;98785.75;;;-7.93;100.00
52319;BME280;38258;51.148;14.068;2023-12-04T01:11:59;98784.41;;;-8.03;100.00
52319;BME280;38258;51.148;14.068;2023-12-04T01:14:25;98738.97;;;-8.31;100.00
52319;BME280;38258;51.148;14.068;2023-12-04T01:16:53;98744.34;;;-8.25;100.00
52319;BME280;38258;51.148;14.068;2023-12-04T01:19:21;98762.28;;;-8.22;100.00
52319;BME280;38258;51.148;14.068;2023-12-04T01:21:47;98757.94;;;-8.25;100.00
52319;BME280;38258;51.148;14.068;2023-12-04T01:24:15;98758.31;;;-8.00;100.00
52319;BME280;38258;51.148;14.068;2023-12-04T01:26:42;98751.72;;;-7.97;100.00
52319;BME280;38258;51.148;14.068;2023-12-04T01:29:08;98763.78;;;-7.76;100.00
52319;BME280;38258;51.148;14.068;2023-12-04T01:31:35;98761.22;;;-7.76;100.00
52319;BME280;38258;51.148;14.068;2023-12-04T01:34:03;98766.88;;;-7.82;100.00
52319;BME280;38258;51.148;14.068;2023-12-04T01:36:32;98746.88;;;-8.09;100.00
52319;BME280;38258;51.148;14.068;2023-12-04T01:39:00;98756.00;;;-8.29;100.00
52319;BME280;38258;51.148;14.068;2023-12-04T01:41:29;98772.44;;;-8.22;100.00
52319;BME280;38258;51.148;14.068;2023-12-04T01:43:56;98776.66;;;-8.23;100.00
52319;BME280;38258;51.148;14.068;2023-12-04T01:46:23;98768.22;;;-8.55;100.00
52319;BME280;38258;51.148;14.068;2023-12-04T01:48:50;98771.38;;;-8.59;100.00
52319;BME280;38258;51.148;14.068;2023-12-04T01:51:19;98764.53;;;-9.23;100.00
52319;BME280;38258;51.148;14.068;2023-12-04T01:53:46;98752.31;;;-9.60;100.00
52319;BME280;38258;51.148;14.068;2023-12-04T01:56:14;98791.09;;;-9.46;100.00
52319;BME280;38258;51.148;14.068;2023-12-04T01:58:42;98763.75;;;-9.67;100.00
52319;BME280;38258;51.148;14.068;2023-12-04T02:01:09;98763.81;;;-9.96;100.00
52319;BME280;38258;51.148;14.068;2023-12-04T02:03:36;98751.59;;;-10.16;100.00
52319;BME280;38258;51.148;14.068;2023-12-04T02:06:02;98759.84;;;-10.34;100.00
52319;BME280;38258;51.148;14.068;2023-12-04T02:08:32;98759.47;;;-10.40;100.00
52319;BME280;38258;51.148;14.068;2023-12-04T02:10:59;98766.06;;;-10.29;100.00
52319;BME280;38258;51.148;14.068;2023-12-04T02:13:26;98757.56;;;-10.44;100.00
52319;BME280;38258;51.148;14.068;2023-12-04T02:15:54;98742.28;;;-10.74;100.00
52319;BME280;38258;51.148;14.068;2023-12-04T02:18:24;98781.84;;;-10.61;100.00
52319;BME280;38258;51.148;14.068;2023-12-04T02:20:54;98750.28;;;-10.82;100.00
52319;BME280;38258;51.148;14.068;2023-12-04T02:23:22;98768.19;;;-10.50;100.00
52319;BME280;38258;51.148;14.068;2023-12-04T02:25:51;98753.00;;;-10.50;100.00
52319;BME280;38258;51.148;14.068;2023-12-04T02:28:21;98755.00;;;-10.59;100.00
52319;BME280;38258;51.148;14.068;2023-12-04T02:30:49;98742.19;;;-10.76;100.00
52319;BME280;38258;51.148;14.068;2023-12-04T02:33:17;98772.22;;;-10.39;100.00
52319;BME280;38258;51.148;14.068;2023-12-04T02:35:47;98744.06;;;-10.01;100.00
52319;BME280;38258;51.148;14.068;2023-12-04T02:38:14;98714.16;;;-9.63;100.00
52319;BME280;38258;51.148;14.068;2023-12-04T02:40:41;98734.19;;;-8.75;100.00
52319;BME280;38258;51.148;14.068;2023-12-04T02:43:09;98729.03;;;-8.27;100.00
52319;BME280;38258;51.148;14.068;2023-12-04T02:45:35;98715.47;;;-8.11;100.00
52319;BME280;38258;51.148;14.068;2023-12-04T02:48:02;98721.06;;;-7.83;100.00
52319;BME280;38258;51.148;14.068;2023-12-04T02:50:29;98697.81;;;-7.56;100.00
52319;BME280;38258;51.148;14.068;2023-12-04T02:52:56;98684.13;;;-7.60;100.00
52319;BME280;38258;51.148;14.068;2023-12-04T02:55:28;98673.38;;;-7.54;100.00
52319;BME280;38258;51.148;14.068;2023-12-04T02:57:55;98681.31;;;-7.30;100.00
52319;BME280;38258;51.148;14.068;2023-12-04T03:00:23;98690.94;;;-7.22;100.00
52319;BME280;38258;51.148;14.068;2023-12-04T03:02:50;98720.38;;;-7.10;100.00
52319;BME280;38258;51.148;14.068;2023-12-04T03:05:17;98706.88;;;-7.08;100.00
52319;BME280;38258;51.148;14.068;2023-12-04T03:07:44;98700.47;;;-7.18;100.00
52319;BME280;38258;51.148;14.068;2023-12-04T03:10:14;98677.00;;;-7.49;100.00
52319;BME280;38258;51.148;14.068;2023-12-04T03:12:40;98691.63;;;-7.27;100.00
52319;BME280;38258;51.148;14.068;2023-12-04T03:15:07;98668.00;;;-7.42;100.00
52319;BME280;38258;51.148;14.068;2023-12-04T03:17:37;98677.59;;;-7.55;100.00
52319;BME280;38258;51.148;14.068;2023-12-04T03:20:04;98657.56;;;-7.83;100.00
52319;BME280;38258;51.148;14.068;2023-12-04T03:22:34;98664.56;;;-8.14;100.00
52319;BME280;38258;51.148;14.068;2023-12-04T03:25:03;98645.94;;;-8.31;100.00
52319;BME280;38258;51.148;14.068;2023-12-04T03:27:29;98639.09;;;-8.15;100.00
52319;BME280;38258;51.148;14.068;2023-12-04T03:29:58;98637.50;;;-8.13;100.00
52319;BME280;38258;51.148;14.068;2023-12-04T03:32:25;98666.38;;;-7.95;100.00
52319;BME280;38258;51.148;14.068;2023-12-04T03:35:02;98655.03;;;-8.18;100.00
52319;BME280;38258;51.148;14.068;2023-12-04T03:37:31;98654.31;;;-8.15;100.00
52319;BME280;38258;51.148;14.068;2023-12-04T03:39:58;98621.44;;;-7.77;100.00
52319;BME280;38258;51.148;14.068;2023-12-04T03:42:25;98653.47;;;-7.08;100.00
52319;BME280;38258;51.148;14.068;2023-12-04T03:44:52;98637.25;;;-7.11;100.00
52319;BME280;38258;51.148;14.068;2023-12-04T03:47:19;98666.25;;;-6.69;100.00
52319;BME280;38258;51.148;14.068;2023-12-04T03:49:46;98673.69;;;-6.34;100.00
52319;BME280;38258;51.148;14.068;2023-12-04T03:52:13;98652.25;;;-6.40;100.00
52319;BME280;38258;51.148;14.068;2023-12-04T03:54:40;98640.19;;;-6.24;100.00
52319;BME280;38258;51.148;14.068;2023-12-04T03:57:08;98635.91;;;-6.25;100.00
52319;BME280;38258;51.148;14.068;2023-12-04T03:59:34;98618.28;;;-6.40;100.00
52319;BME280;38258;51.148;14.068;2023-12-04T04:02:01;98618.81;;;-6.28;100.00
52319;BME280;38258;51.148;14.068;2023-12-04T04:04:27;98606.25;;;-6.44;100.00
52319;BME280;38258;51.148;14.068;2023-12-04T04:06:54;98642.94;;;-5.98;100.00
52319;BME280;38258;51.148;14.068;2023-12-04T04:09:29;98655.72;;;-5.75;100.00
52319;BME280;38258;51.148;14.068;2023-12-04T04:11:56;98650.16;;;-5.88;100.00
52319;BME280;38258;51.148;14.068;2023-12-04T04:14:22;98651.94;;;-5.85;100.00
52319;BME280;38258;51.148;14.068;2023-12-04T04:16:52;98608.44;;;-5.90;100.00
52319;BME280;38258;51.148;14.068;2023-12-04T04:19:18;98636.72;;;-5.84;100.00
52319;BME280;38258;51.148;14.068;2023-12-04T04:21:45;98628.00;;;-5.89;100.00
52319;BME280;38258;51.148;14.068;2023-12-04T04:24:12;98660.41;;;-5.65;100.00
52319;BME280;38258;51.148;14.068;2023-12-04T04:26:40;98657.84;;;-5.65;100.00
52319;BME280;38258;51.148;14.068;2023-12-04T04:29:06;98655.81;;;-5.74;100.00
52319;BME280;38258;51.148;14.068;2023-12-04T04:31:33;98633.69;;;-5.75;100.00
52319;BME280;38258;51.148;14.068;2023-12-04T04:34:00;98604.63;;;-5.80;100.00
52319;BME280;38258;51.148;14.068;2023-12-04T04:36:27;98616.88;;;-5.70;100.00
52319;BME280;38258;51.148;14.068;2023-12-04T04:38:53;98613.09;;;-5.58;100.00
52319;BME280;38258;51.148;14.068;2023-12-04T04:41:20;98604.84;;;-5.74;100.00
52319;BME280;38258;51.148;14.068;2023-12-04T04:43:48;98632.25;;;-5.89;100.00
52319;BME280;38258;51.148;14.068;2023-12-04T04:46:14;98618.41;;;-5.96;100.00
52319;BME280;38258;51.148;14.068;2023-12-04T04:48:41;98626.13;;;-5.94;100.00
52319;BME280;38258;51.148;14.068;2023-12-04T04:51:10;98590.84;;;-6.06;100.00
52319;BME280;38258;51.148;14.068;2023-12-04T04:53:37;98602.44;;;-6.13;100.00
52319;BME280;38258;51.148;14.068;2023-12-04T04:56:05;98610.44;;;-6.25;100.00
52319;BME280;38258;51.148;14.068;2023-12-04T04:58:32;98606.97;;;-6.27;100.00
52319;BME280;38258;51.148;14.068;2023-12-04T05:01:04;98618.41;;;-6.17;100.00
52319;BME280;38258;51.148;14.068;2023-12-04T05:03:31;98604.84;;;-6.37;100.00
52319;BME280;38258;51.148;14.068;2023-12-04T05:05:57;98632.75;;;-5.98;100.00
52319;BME280;38258;51.148;14.068;2023-12-04T05:08:24;98603.00;;;-5.99;100.00
52319;BME280;38258;51.148;14.068;2023-12-04T05:10:51;98601.00;;;-5.85;100.00
52319;BME280;38258;51.148;14.068;2023-12-04T05:13:18;98591.56;;;-5.88;100.00
52319;BME280;38258;51.148;14.068;2023-12-04T05:15:45;98599.00;;;-5.71;100.00
52319;BME280;38258;51.148;14.068;2023-12-04T05:18:13;98615.84;;;-5.75;100.00
52319;BME280;38258;51.148;14.068;2023-12-04T05:20:39;98593.22;;;-5.88;100.00
52319;BME280;38258;51.148;14.068;2023-12-04T05:23:06;98584.81;;;-6.08;100.00
52319;BME280;38258;51.148;14.068;2023-12-04T05:25:33;98616.41;;;-5.82;100.00
52319;BME280;38258;51.148;14.068;2023-12-04T05:27:59;98587.91;;;-5.94;100.00
52319;BME280;38258;51.148;14.068;2023-12-04T05:30:26;98606.34;;;-5.79;100.00
52319;BME280;38258;51.148;14.068;2023-12-04T05:32:53;98610.06;;;-5.71;100.00
52319;BME280;38258;51.148;14.068;2023-12-04T05:35:21;98606.19;;;-5.61;100.00
52319;BME280;38258;51.148;14.068;2023-12-04T05:37:48;98625.06;;;-5.34;100.00
52319;BME280;38258;51.148;14.068;2023-12-04T05:40:16;98602.88;;;-5.37;100.00
52319;BME280;38258;51.148;14.068;2023-12-04T05:42:43;98585.31;;;-5.52;100.00
52319;BME280;38258;51.148;14.068;2023-12-04T05:45:10;98629.03;;;-5.20;100.00
52319;BME280;38258;51.148;14.068;2023-12-04T05:47:36;98611.09;;;-5.21;100.00
52319;BME280;38258;51.148;14.068;2023-12-04T05:50:03;98619.56;;;-5.22;100.00
52319;BME280;38258;51.148;14.068;2023-12-04T05:52:34;98614.28;;;-5.27;100.00
52319;BME280;38258;51.148;14.068;2023-12-04T05:55:00;98594.13;;;-5.44;100.00
52319;BME280;38258;51.148;14.068;2023-12-04T05:57:27;98615.34;;;-5.22;100.00
52319;BME280;38258;51.148;14.068;2023-12-04T05:59:54;98620.78;;;-5.13;100.00
52319;BME280;38258;51.148;14.068;2023-12-04T06:02:21;98560.34;;;-5.38;100.00
52319;BME280;38258;51.148;14.068;2023-12-04T06:04:48;98591.22;;;-5.30;100.00
52319;BME280;38258;51.148;14.068;2023-12-04T06:07:15;98561.25;;;-5.36;100.00
52319;BME280;38258;51.148;14.068;2023-12-04T06:09:43;98545.31;;;-5.53;100.00
52319;BME280;38258;51.148;14.068;2023-12-04T06:12:09;98536.28;;;-5.45;100.00
52319;BME280;38258;51.148;14.068;2023-12-04T06:14:36;98546.03;;;-5.34;100.00
52319;BME280;38258;51.148;14.068;2023-12-04T06:17:03;98542.59;;;-5.35;100.00
52319;BME280;38258;51.148;14.068;2023-12-04T06:19:32;98527.94;;;-5.41;100.00
52319;BME280;38258;51.148;14.068;2023-12-04T06:21:58;98546.03;;;-5.34;100.00
52319;BME280;38258;51.148;14.068;2023-12-04T06:24:25;98563.19;;;-5.30;100.00
52319;BME280;38258;51.148;14.068;2023-12-04T06:26:54;98550.66;;;-5.24;100.00
52319;BME280;38258;51.148;14.068;2023-12-04T06:29:21;98537.69;;;-5.30;100.00
52319;BME280;38258;51.148;14.068;2023-12-04T06:31:48;98508.88;;;-5.50;100.00
52319;BME280;38258;51.148;14.068;2023-12-04T06:34:15;98545.50;;;-5.26;100.00
52319;BME280;38258;51.148;14.068;2023-12-04T06:36:42;98538.50;;;-5.31;100.00
52319;BME280;38258;51.148;14.068;2023-12-04T06:39:10;98553.34;;;-5.21;100.00
52319;BME280;38258;51.148;14.068;2023-12-04T06:41:38;98547.63;;;-5.14;100.00
52319;BME280;38258;51.148;14.068;2023-12-04T06:44:07;98556.06;;;-5.16;100.00
52319;BME280;38258;51.148;14.068;2023-12-04T06:46:37;98547.53;;;-5.17;100.00
52319;BME280;38258;51.148;14.068;2023-12-04T06:49:05;98557.56;;;-5.21;100.00
52319;BME280;38258;51.148;14.068;2023-12-04T06:51:32;98527.94;;;-5.41;100.00
52319;BME280;38258;51.148;14.068;2023-12-04T06:53:59;98554.25;;;-5.19;100.00
52319;BME280;38258;51.148;14.068;2023-12-04T06:56:25;98543.66;;;-5.30;100.00
52319;BME280;38258;51.148;14.068;2023-12-04T06:58:52;98543.66;;;-5.30;100.00
52319;BME280;38258;51.148;14.068;2023-12-04T07:01:20;98537.84;;;-5.26;100.00
52319;BME280;38258;51.148;14.068;2023-12-04T07:03:47;98557.19;;;-5.08;100.00
52319;BME280;38258;51.148;14.068;2023-12-04T07:06:14;98562.41;;;-5.05;100.00
52319;BME280;38258;51.148;14.068;2023-12-04T07:08:40;98550.78;;;-5.21;100.00
52319;BME280;38258;51.148;14.068;2023-12-04T07:11:07;98546.22;;;-5.30;100.00
52319;BME280;38258;51.148;14.068;2023-12-04T07:13:34;98557.34;;;-5.28;100.00
52319;BME280;38258;51.148;14.068;2023-12-04T07:16:02;98540.41;;;-5.26;100.00
52319;BME280;38258;51.148;14.068;2023-12-04T07:18:30;98517.34;;;-5.29;100.00
52319;BME280;38258;51.148;14.068;2023-12-04T07:20:59;98494.41;;;-5.51;100.00
52319;BME280;38258;51.148;14.068;2023-12-04T07:23:26;98502.59;;;-5.37;100.00
52319;BME280;38258;51.148;14.068;2023-12-04T07:25:52;98538.84;;;-5.22;100.00
52319;BME280;38258;51.148;14.068;2023-12-04T07:28:19;98516.53;;;-5.28;100.00
52319;BME280;38258;51.148;14.068;2023-12-04T07:30:46;98547.34;;;-5.21;100.00
52319;BME280;38258;51.148;14.068;2023-12-04T07:33:12;98549.47;;;-5.09;100.00
52319;BME280;38258;51.148;14.068;2023-12-04T07:35:43;98543.81;;;-5.25;100.00
52319;BME280;38258;51.148;14.068;2023-12-04T07:38:09;98532.59;;;-5.30;100.00
52319;BME280;38258;51.148;14.068;2023-12-04T07:40:36;98563.19;;;-5.07;100.00
52319;BME280;38258;51.148;14.068;2023-12-04T07:43:02;98552.63;;;-5.17;100.00
52319;BME280;38258;51.148;14.068;2023-12-04T07:45:29;98517.88;;;-5.37;100.00
52319;BME280;38258;51.148;14.068;2023-12-04T07:47:56;98515.09;;;-5.44;100.00
52319;BME280;38258;51.148;14.068;2023-12-04T07:50:21;98536.28;;;-5.22;100.00
52319;BME280;38258;51.148;14.068;2023-12-04T07:52:50;98536.69;;;-5.34;100.00
52319;BME280;38258;51.148;14.068;2023-12-04T07:55:17;98556.38;;;-5.07;100.00
52319;BME280;38258;51.148;14.068;2023-12-04T07:57:43;98505.56;;;-5.25;100.00
52319;BME280;38258;51.148;14.068;2023-12-04T08:00:11;98550.84;;;-4.95;100.00
52319;BME280;38258;51.148;14.068;2023-12-04T08:02:39;98551.72;;;-4.94;100.00
52319;BME280;38258;51.148;14.068;2023-12-04T08:05:06;98519.28;;;-4.99;100.00
52319;BME280;38258;51.148;14.068;2023-12-04T08:07:33;98547.63;;;-4.91;100.00
52319;BME280;38258;51.148;14.068;2023-12-04T08:10:01;98490.44;;;-5.20;100.00
52319;BME280;38258;51.148;14.068;2023-12-04T08:12:28;98517.41;;;-5.03;100.00
52319;BME280;38258;51.148;14.068;2023-12-04T08:14:54;98522.69;;;-4.98;100.00
52319;BME280;38258;51.148;14.068;2023-12-04T08:17:21;98523.50;;;-4.99;100.00
52319;BME280;38258;51.148;14.068;2023-12-04T08:19:48;98526.31;;;-4.91;100.00
52319;BME280;38258;51.148;14.068;2023-12-04T08:22:14;98517.09;;;-4.88;100.00
52319;BME280;38258;51.148;14.068;2023-12-04T08:24:41;98487.72;;;-5.25;100.00
52319;BME280;38258;51.148;14.068;2023-12-04T08:27:10;98534.63;;;-4.73;100.00
52319;BME280;38258;51.148;14.068;2023-12-04T08:29:39;98490.66;;;-5.14;100.00
52319;BME280;38258;51.148;14.068;2023-12-04T08:32:06;98516.72;;;-4.99;100.00
52319;BME280;38258;51.148;14.068;2023-12-04T08:34:32;98492.84;;;-5.01;100.00
52319;BME280;38258;51.148;14.068;2023-12-04T08:36:59;98492.44;;;-5.12;100.00
52319;BME280;38258;51.148;14.068;2023-12-04T08:39:25;98514.09;;;-5.00;100.00
52319;BME280;38258;51.148;14.068;2023-12-04T08:41:52;98511.56;;;-5.00;100.00
52319;BME280;38258;51.148;14.068;2023-12-04T08:44:20;98522.28;;;-5.09;100.00
52319;BME280;38258;51.148;14.068;2023-12-04T08:46:46;98516.75;;;-4.97;100.00
52319;BME280;38258;51.148;14.068;2023-12-04T08:49:13;98504.16;;;-5.17;100.00
52319;BME280;38258;51.148;14.068;2023-12-04T08:51:39;98506.09;;;-5.09;100.00
52319;BME280;38258;51.148;14.068;2023-12-04T08:54:06;98509.97;;;-4.97;100.00
52319;BME280;38258;51.148;14.068;2023-12-04T08:56:33;98518.22;;;-5.04;100.00
52319;BME280;38258;51.148;14.068;2023-12-04T08:58:59;98523.72;;;-4.93;100.00
52319;BME280;38258;51.148;14.068;2023-12-04T09:01:27;98515.84;;;-4.99;100.00
52319;BME280;38258;51.148;14.068;2023-12-04T09:03:54;98517.09;;;-4.88;100.00
52319;BME280;38258;51.148;14.068;2023-12-04T09:06:21;98519.97;;;-4.78;100.00
52319;BME280;38258;51.148;14.068;2023-12-04T09:08:47;98516.50;;;-4.80;100.00
52319;BME280;38258;51.148;14.068;2023-12-04T09:11:14;98511.59;;;-4.74;100.00
52319;BME280;38258;51.148;14.068;2023-12-04T09:13:40;98507.34;;;-4.74;100.00
52319;BME280;38258;51.148;14.068;2023-12-04T09:16:07;98499.81;;;-4.71;100.00
52319;BME280;38258;51.148;14.068;2023-12-04T09:18:35;98472.09;;;-4.86;100.00
52319;BME280;38258;51.148;14.068;2023-12-04T09:21:02;98514.97;;;-4.75;100.00
52319;BME280;38258;51.148;14.068;2023-12-04T09:23:29;98485.56;;;-4.90;100.00
52319;BME280;38258;51.148;14.068;2023-12-04T09:25:56;98512.31;;;-4.78;100.00
52319;BME280;38258;51.148;14.068;2023-12-04T09:28:22;98513.25;;;-4.76;100.00
52319;BME280;38258;51.148;14.068;2023-12-04T09:30:49;98511.69;;;-4.71;100.00
52319;BME280;38258;51.148;14.068;2023-12-04T09:33:15;98509.25;;;-4.68;100.00
52319;BME280;38258;51.148;14.068;2023-12-04T09:35:44;98498.84;;;-4.74;100.00
52319;BME280;38258;51.148;14.068;2023-12-04T09:38:11;98493.41;;;-4.84;100.00
52319;BME280;38258;51.148;14.068;2023-12-04T09:40:38;98506.50;;;-4.74;100.00
52319;BME280;38258;51.148;14.068;2023-12-04T09:43:05;98469.19;;;-4.95;100.00
52319;BME280;38258;51.148;14.068;2023-12-04T09:45:32;98512.91;;;-4.86;100.00
52319;BME280;38258;51.148;14.068;2023-12-04T09:47:59;98495.41;;;-4.75;100.00
52319;BME280;38258;51.148;14.068;2023-12-04T09:50:25;98501.50;;;-4.71;100.00
52319;BME280;38258;51.148;14.068;2023-12-04T09:52:54;98488.44;;;-4.55;100.00
52319;BME280;38258;51.148;14.068;2023-12-04T09:55:23;98493.28;;;-4.62;100.00
52319;BME280;38258;51.148;14.068;2023-12-04T09:57:50;98474.72;;;-4.58;100.00
52319;BME280;38258;51.148;14.068;2023-12-04T10:00:17;98462.22;;;-4.50;100.00
52319;BME280;38258;51.148;14.068;2023-12-04T10:02:45;98457.03;;;-4.52;100.00
52319;BME280;38258;51.148;14.068;2023-12-04T10:05:12;98453.75;;;-4.48;100.00
52319;BME280;38258;51.148;14.068;2023-12-04T10:07:39;98430.75;;;-4.49;100.00
52319;BME280;38258;51.148;14.068;2023-12-04T10:10:07;98451.44;;;-4.40;100.00
52319;BME280;38258;51.148;14.068;2023-12-04T10:12:35;98439.81;;;-4.32;100.00
52319;BME280;38258;51.148;14.068;2023-12-04T10:15:04;98427.03;;;-4.32;100.00
52319;BME280;38258;51.148;14.068;2023-12-04T10:17:35;98432.63;;;-4.16;100.00
52319;BME280;38258;51.148;14.068;2023-12-04T10:20:08;98429.16;;;-4.18;100.00
52319;BME280;38258;51.148;14.068;2023-12-04T10:22:51;98426.56;;;-4.20;100.00
52319;BME280;38258;51.148;14.068;2023-12-04T10:25:20;98424.19;;;-4.14;100.00
52319;BME280;38258;51.148;14.068;2023-12-04T10:27:46;98405.53;;;-4.11;100.00
52319;BME280;38258;51.148;14.068;2023-12-04T10:30:23;98409.81;;;-4.10;100.00
52319;BME280;38258;51.148;14.068;2023-12-04T10:32:54;98407.16;;;-4.15;100.00
52319;BME280;38258;51.148;14.068;2023-12-04T10:35:20;98409.97;;;-4.05;100.00
52319;BME280;38258;51.148;14.068;2023-12-04T10:37:48;98397.09;;;-4.08;100.00
52319;BME280;38258;51.148;14.068;2023-12-04T10:40:24;98386.72;;;-3.84;100.00
52319;BME280;38258;51.148;14.068;2023-12-04T10:42:51;98385.81;;;-4.15;100.00
52319;BME280;38258;51.148;14.068;2023-12-04T10:45:18;98382.75;;;-4.03;100.00
52319;BME280;38258;51.148;14.068;2023-12-04T10:47:48;98382.06;;;-3.98;100.00
52319;BME280;38258;51.148;14.068;2023-12-04T10:50:17;98378.63;;;-4.00;100.00
52319;BME280;38258;51.148;14.068;2023-12-04T10:52:44;98368.59;;;-3.93;100.00
52319;BME280;38258;51.148;14.068;2023-12-04T10:55:11;98373.41;;;-3.74;100.00
52319;BME280;38258;51.148;14.068;2023-12-04T10:57:40;98368.22;;;-3.77;100.00
52319;BME280;38258;51.148;14.068;2023-12-04T11:00:11;98368.91;;;-3.83;100.00
52319;BME280;38258;51.148;14.068;2023-12-04T11:02:43;98368.81;;;-3.86;100.00
52319;BME280;38258;51.148;14.068;2023-12-04T11:05:14;98364.69;;;-3.80;100.00
52319;BME280;38258;51.148;14.068;2023-12-04T11:07:45;98380.09;;;-3.79;100.00
52319;BME280;38258;51.148;14.068;2023-12-04T11:10:14;98370.69;;;-3.80;100.00
52319;BME280;38258;51.148;14.068;2023-12-04T11:12:45;98363.88;;;-3.79;100.00
52319;BME280;38258;51.148;14.068;2023-12-04T11:15:14;98341.47;;;-3.88;100.00
52319;BME280;38258;51.148;14.068;2023-12-04T11:17:43;98344.88;;;-3.57;100.00
52319;BME280;38258;51.148;14.068;2023-12-04T11:20:16;98349.28;;;-3.51;100.00
52319;BME280;38258;51.148;14.068;2023-12-04T11:22:45;98340.72;;;-3.53;100.00
52319;BME280;38258;51.148;14.068;2023-12-04T11:25:13;98347.09;;;-3.37;100.00
52319;BME280;38258;51.148;14.068;2023-12-04T11:27:41;98333.06;;;-3.52;100.00
52319;BME280;38258;51.148;14.068;2023-12-04T11:30:11;98333.97;;;-3.18;100.00
52319;BME280;38258;51.148;14.068;2023-12-04T11:32:44;98329.38;;;-3.31;100.00
52319;BME280;38258;51.148;14.068;2023-12-04T11:35:12;98337.75;;;-3.37;100.00
52319;BME280;38258;51.148;14.068;2023-12-04T11:37:40;98329.50;;;-3.25;100.00
52319;BME280;38258;51.148;14.068;2023-12-04T11:40:11;98327.97;;;-3.18;100.00
52319;BME280;38258;51.148;14.068;2023-12-04T11:42:38;98313.84;;;-3.37;100.00
52319;BME280;38258;51.148;14.068;2023-12-04T11:45:06;98311.72;;;-3.22;100.00
52319;BME280;38258;51.148;14.068;2023-12-04T11:47:52;98302.53;;;-3.14;100.00
52319;BME280;38258;51.148;14.068;2023-12-04T11:50:21;98286.34;;;-2.77;100.00
52319;BME280;38258;51.148;14.068;2023-12-04T11:52:48;98277.78;;;-2.78;100.00
52319;BME280;38258;51.148;14.068;2023-12-04T11:55:17;98276.56;;;-2.94;100.00
52319;BME280;38258;51.148;14.068;2023-12-04T11:57:45;98281.06;;;-2.84;100.00
52319;BME280;38258;51.148;14.068;2023-12-04T12:00:18;98269.56;;;-3.01;100.00
52319;BME280;38258;51.148;14.068;2023-12-04T12:02:47;98268.00;;;-2.94;100.00
52319;BME280;38258;51.148;14.068;2023-12-04T12:05:15;98261.00;;;-3.02;100.00
52319;BME280;38258;51.148;14.068;2023-12-04T12:07:42;98249.09;;;-3.01;100.00
52319;BME280;38258;51.148;14.068;2023-12-04T12:10:09;98247.00;;;-3.16;100.00
52319;BME280;38258;51.148;14.068;2023-12-04T12:12:36;98232.47;;;-3.19;100.00
52319;BME280;38258;51.148;14.068;2023-12-04T12:15:03;98230.09;;;-3.09;100.00
52319;BME280;38258;51.148;14.068;2023-12-04T12:17:30;98232.59;;;-3.13;100.00
52319;BME280;38258;51.148;14.068;2023-12-04T12:19:56;98231.28;;;-2.96;100.00
52319;BME280;38258;51.148;14.068;2023-12-04T12:22:24;98221.22;;;-2.89;100.00
52319;BME280;38258;51.148;14.068;2023-12-04T12:24:51;98223.53;;;-3.00;100.00
52319;BME280;38258;51.148;14.068;2023-12-04T12:27:18;98218.44;;;-2.98;100.00
52319;BME280;38258;51.148;14.068;2023-12-04T12:29:44;98207.03;;;-3.13;100.00
52319;BME280;38258;51.148;14.068;2023-12-04T12:32:11;98205.56;;;-3.01;100.00
52319;BME280;38258;51.148;14.068;2023-12-04T12:34:37;98209.69;;;-3.08;100.00
52319;BME280;38258;51.148;14.068;2023-12-04T12:37:04;98212.84;;;-3.18;100.00
52319;BME280;38258;51.148;14.068;2023-12-04T12:39:33;98199.50;;;-3.42;100.00
52319;BME280;38258;51.148;14.068;2023-12-04T12:42:00;98206.59;;;-3.31;100.00